weather.gov     
National Weather Service

Terminal Aerodrome Forecast
NWS Homepage
This page is being discontinued on March 12, 2014.
The same data is available at this site. Please update your bookmarks.
Thank you, and we apologize for the inconvenience.
Please send an email to SR-SRH.Webmaster@noaa.gov with any concerns.


Current Version
Previous Version:    01  02  03  04  05  06  07  08  09  10  11  12  13  14  15  16  17  18  19  20  21  22  23  24  25  26  27  28  29  30  
   31  32  33  34  35  36  37  38  39  40  41  42  43  
[Printable]
429
FTUS42 KTBW 230900 AAC
TAFRSW
TAF AMD
KRSW 230908Z 2309/2406 VRB03KT P6SM VCSH SCT004 BKN100 BKN250
      TEMPO 2309/2312 BKN003
     FM231400 19006KT P6SM VCSH SCT020 BKN060
     FM231700 24007KT P6SM VCTS SCT020CB BKN040 BKN120
     FM240100 VRB04KT P6SM VCSH FEW020 BKN100=


U.S. Dept. of Commerce
NOAA National Weather Service
1325 East West Highway
Silver Spring, MD 20910
E-mail: w-nws.webmaster@noaa.gov
Page last modified: May 16, 2007
NATIONAL WEATHER SERVICE: for Safety, for Work, for Fun - FOR LIFE